createdAt,value
2022-08-29T00:00:28.072Z,18.40
2022-08-29T00:02:57.384Z,18.30
2022-08-29T00:05:31.269Z,18.40
2022-08-29T00:07:59.722Z,18.40
2022-08-29T00:10:28.318Z,18.30
2022-08-29T00:12:57.810Z,18.30
2022-08-29T00:15:25.901Z,18.20
2022-08-29T00:17:52.793Z,18.20
2022-08-29T00:20:30.172Z,18.50
2022-08-29T00:23:01.928Z,18.30
2022-08-29T00:25:28.803Z,18.30
2022-08-29T00:27:55.571Z,18.20
2022-08-29T00:30:22.634Z,18.40
2022-08-29T00:32:49.771Z,18.30
2022-08-29T00:35:23.764Z,18.30
2022-08-29T00:37:52.149Z,18.40
2022-08-29T00:40:25.733Z,18.40
2022-08-29T00:42:52.740Z,18.40
2022-08-29T00:45:19.953Z,18.30
2022-08-29T00:47:54.411Z,18.40
2022-08-29T00:50:44.858Z,18.30
2022-08-29T00:53:16.060Z,18.20
2022-08-29T00:55:50.327Z,18.20
2022-08-29T00:58:39.695Z,18.20
2022-08-29T01:01:07.054Z,18.20
2022-08-29T01:03:36.667Z,18.20
2022-08-29T01:06:10.324Z,18.10
2022-08-29T01:08:37.206Z,18.10
2022-08-29T01:11:22.630Z,18.20
2022-08-29T01:13:52.899Z,18.10
2022-08-29T01:16:21.130Z,18.10
2022-08-29T01:18:53.323Z,18.10
2022-08-29T01:21:24.986Z,18.10
2022-08-29T01:24:04.260Z,18.10
2022-08-29T01:26:32.315Z,17.90
2022-08-29T01:28:59.315Z,17.80
2022-08-29T01:31:49.121Z,17.80
2022-08-29T01:34:22.845Z,17.70
2022-08-29T01:36:56.296Z,17.70
2022-08-29T01:39:28.768Z,17.80
2022-08-29T01:41:57.854Z,18.00
2022-08-29T01:44:27.947Z,17.80
2022-08-29T01:47:02.686Z,17.80
2022-08-29T01:49:34.935Z,17.70
2022-08-29T01:52:05.827Z,17.60
2022-08-29T01:54:34.260Z,18.40
2022-08-29T01:57:02.049Z,17.70
2022-08-29T01:59:30.493Z,17.60
2022-08-29T02:02:09.243Z,17.90
2022-08-29T02:04:36.209Z,17.80
2022-08-29T02:07:03.102Z,17.90
2022-08-29T02:09:30.895Z,17.80
2022-08-29T02:12:03.347Z,17.80
2022-08-29T02:14:30.471Z,17.80
2022-08-29T02:16:57.247Z,17.70
2022-08-29T02:19:24.072Z,17.70
2022-08-29T02:21:51.263Z,17.60
2022-08-29T02:24:26.355Z,17.50
2022-08-29T02:26:54.780Z,17.70
2022-08-29T02:29:21.618Z,17.70
2022-08-29T02:31:48.770Z,18.50
2022-08-29T02:34:15.846Z,17.60
2022-08-29T02:36:44.053Z,17.50
2022-08-29T02:39:11.897Z,17.60
2022-08-29T02:41:39.009Z,17.70
2022-08-29T02:44:06.488Z,17.60
2022-08-29T02:46:33.846Z,17.70
2022-08-29T02:49:01.490Z,17.70
2022-08-29T02:51:31.148Z,17.60
2022-08-29T02:53:58.466Z,19.20
2022-08-29T02:56:25.616Z,17.50
2022-08-29T02:58:52.669Z,17.60
2022-08-29T03:01:21.409Z,17.70
2022-08-29T03:03:50.357Z,17.70
2022-08-29T03:06:18.239Z,17.90
2022-08-29T03:08:45.170Z,17.60
2022-08-29T03:11:12.061Z,17.10
2022-08-29T03:13:38.874Z,17.30
2022-08-29T03:16:06.127Z,17.30
2022-08-29T03:18:33.093Z,17.40
2022-08-29T03:21:00.015Z,17.30
2022-08-29T03:23:27.140Z,17.60
2022-08-29T03:25:54.963Z,17.30
2022-08-29T03:28:21.939Z,17.20
2022-08-29T03:30:48.849Z,17.30
2022-08-29T03:33:15.686Z,17.70
2022-08-29T03:35:42.894Z,17.20
2022-08-29T03:38:09.814Z,17.00
2022-08-29T03:40:36.888Z,17.80
2022-08-29T03:43:03.827Z,17.30
2022-08-29T03:45:30.825Z,17.80
2022-08-29T03:47:57.695Z,17.10
2022-08-29T03:50:24.676Z,17.10
2022-08-29T03:52:51.951Z,17.00
2022-08-29T03:55:20.124Z,18.60
2022-08-29T03:57:47.360Z,18.10
2022-08-29T04:00:17.878Z,17.00
2022-08-29T04:02:46.883Z,17.10
2022-08-29T04:05:16.115Z,17.10
2022-08-29T04:07:42.882Z,17.10
2022-08-29T04:10:12.136Z,17.10
2022-08-29T04:12:39.218Z,17.10
2022-08-29T04:15:06.937Z,17.50
2022-08-29T04:17:34.482Z,17.10
2022-08-29T04:20:01.575Z,17.40
2022-08-29T04:22:28.363Z,16.90
2022-08-29T04:24:55.139Z,16.90
2022-08-29T04:27:21.948Z,17.40
2022-08-29T04:29:48.703Z,17.60
2022-08-29T04:32:16.630Z,17.00
2022-08-29T04:34:43.629Z,17.00
2022-08-29T04:37:10.567Z,17.40
2022-08-29T04:39:37.974Z,16.80
2022-08-29T04:42:05.116Z,17.50
2022-08-29T04:44:32.402Z,16.90
2022-08-29T04:46:59.205Z,17.50
2022-08-29T04:49:26.083Z,17.30
2022-08-29T04:51:53.894Z,17.00
2022-08-29T04:54:20.785Z,17.00
2022-08-29T04:56:47.713Z,17.10
2022-08-29T04:59:16.358Z,17.10
2022-08-29T05:01:43.593Z,17.10
2022-08-29T05:04:14.306Z,17.70
2022-08-29T05:06:41.971Z,17.30
2022-08-29T05:09:08.814Z,17.10
2022-08-29T05:11:35.657Z,17.10
2022-08-29T05:14:02.705Z,17.20
2022-08-29T05:16:30.602Z,17.10
2022-08-29T05:18:58.687Z,17.10
2022-08-29T05:21:28.184Z,17.10
2022-08-29T05:23:56.600Z,17.10
2022-08-29T05:26:24.026Z,17.20
2022-08-29T05:28:51.506Z,17.10
2022-08-29T05:31:18.668Z,17.20
2022-08-29T05:33:45.440Z,17.30
2022-08-29T05:36:12.524Z,17.60
2022-08-29T05:38:39.294Z,17.40
2022-08-29T05:41:07.464Z,18.10
2022-08-29T05:43:35.468Z,17.50
2022-08-29T05:46:04.519Z,17.60
2022-08-29T05:48:32.321Z,17.40
2022-08-29T05:50:59.889Z,17.70
2022-08-29T05:53:27.663Z,17.40
2022-08-29T05:55:55.978Z,17.50
2022-08-29T05:58:22.785Z,17.90
2022-08-29T06:00:49.710Z,17.80
2022-08-29T06:03:16.635Z,17.80
2022-08-29T06:05:43.780Z,18.00
2022-08-29T06:08:10.620Z,18.30
2022-08-29T06:10:42.142Z,18.70
2022-08-29T06:13:09.087Z,18.80
2022-08-29T06:15:36.117Z,18.90
2022-08-29T06:18:03.740Z,18.80
2022-08-29T06:20:31.146Z,20.40
2022-08-29T06:22:57.996Z,19.10
2022-08-29T06:25:40.572Z,19.30
2022-08-29T06:28:08.365Z,19.80
2022-08-29T06:30:35.316Z,19.70
2022-08-29T06:33:02.694Z,20.90
2022-08-29T06:35:30.001Z,19.90
2022-08-29T06:37:56.739Z,19.90
2022-08-29T06:40:23.682Z,21.00
2022-08-29T06:42:50.575Z,20.70
2022-08-29T06:45:17.582Z,20.20
2022-08-29T06:47:47.564Z,19.90
2022-08-29T06:50:15.815Z,21.00
2022-08-29T06:52:42.670Z,20.00
2022-08-29T06:55:13.638Z,20.00
2022-08-29T06:57:45.355Z,20.10
2022-08-29T07:00:21.827Z,20.40
2022-08-29T07:02:51.864Z,20.50
2022-08-29T07:05:20.787Z,20.40
2022-08-29T07:07:47.696Z,20.60
2022-08-29T07:10:18.684Z,21.60
2022-08-29T07:12:48.346Z,21.40
2022-08-29T07:15:15.428Z,21.30
2022-08-29T07:17:42.573Z,21.30
2022-08-29T07:20:10.185Z,21.40
2022-08-29T07:22:37.291Z,21.40
2022-08-29T07:25:04.347Z,21.70
2022-08-29T07:27:31.855Z,22.20
2022-08-29T07:30:02.570Z,22.40
2022-08-29T07:32:30.138Z,23.50
2022-08-29T07:34:56.926Z,22.60
2022-08-29T07:37:24.501Z,23.00
2022-08-29T07:39:51.487Z,22.50
2022-08-29T07:42:18.252Z,23.10
2022-08-29T07:44:44.998Z,23.30
2022-08-29T07:47:11.831Z,23.10
2022-08-29T07:49:41.563Z,23.00
2022-08-29T07:52:08.861Z,23.00
2022-08-29T07:54:35.762Z,23.30
2022-08-29T07:57:02.558Z,23.50
2022-08-29T07:59:31.310Z,23.70
2022-08-29T08:01:58.109Z,23.90
2022-08-29T08:04:26.116Z,23.90
2022-08-29T08:06:52.953Z,23.80
2022-08-29T08:09:19.742Z,24.10
2022-08-29T08:11:46.760Z,24.60
2022-08-29T08:14:13.867Z,24.20
2022-08-29T08:16:44.339Z,23.80
2022-08-29T08:19:13.724Z,23.90
2022-08-29T08:21:49.049Z,24.30
2022-08-29T08:24:19.539Z,24.60
2022-08-29T08:26:47.209Z,24.70
2022-08-29T08:29:14.038Z,24.80
2022-08-29T08:31:46.018Z,25.20
2022-08-29T08:34:15.708Z,25.70
2022-08-29T08:36:44.883Z,25.60
2022-08-29T08:39:13.285Z,25.50
2022-08-29T08:41:49.982Z,25.80
2022-08-29T08:44:22.554Z,26.20
2022-08-29T08:46:52.552Z,26.30
2022-08-29T08:49:25.748Z,25.40
2022-08-29T08:51:58.582Z,25.70
2022-08-29T08:54:28.214Z,26.20
2022-08-29T08:57:03.267Z,26.50
2022-08-29T08:59:43.529Z,26.70
2022-08-29T09:02:28.490Z,27.00
2022-08-29T09:05:34.196Z,27.00
2022-08-29T09:08:29.267Z,27.10
2022-08-29T09:11:29.858Z,27.40
2022-08-29T09:14:28.392Z,27.40
2022-08-29T09:16:58.793Z,27.50
2022-08-29T09:19:26.467Z,28.20
2022-08-29T09:21:59.876Z,27.80
2022-08-29T09:24:49.964Z,28.20
2022-08-29T09:27:22.835Z,28.00
2022-08-29T09:30:04.681Z,28.00
2022-08-29T09:32:32.040Z,27.70
2022-08-29T09:35:15.200Z,27.70
2022-08-29T09:37:42.008Z,27.50
2022-08-29T09:40:16.553Z,27.10
2022-08-29T09:43:01.459Z,27.00
2022-08-29T09:45:28.692Z,26.80
2022-08-29T09:48:14.442Z,26.80
2022-08-29T09:50:41.453Z,26.70
2022-08-29T09:53:24.721Z,27.30
2022-08-29T09:55:52.619Z,27.10
2022-08-29T09:58:20.008Z,27.40
2022-08-29T10:01:26.957Z,27.70
2022-08-29T10:04:02.530Z,27.60
2022-08-29T10:06:45.261Z,27.10
2022-08-29T10:09:26.705Z,27.50
2022-08-29T10:12:03.592Z,27.70
2022-08-29T10:14:38.635Z,28.00
2022-08-29T10:17:57.124Z,27.90
2022-08-29T10:20:33.891Z,28.40
2022-08-29T10:23:14.185Z,29.10
2022-08-29T10:25:41.642Z,29.50
2022-08-29T10:28:28.481Z,30.00
2022-08-29T10:31:26.212Z,30.30
2022-08-29T10:34:12.456Z,30.30
2022-08-29T10:36:41.121Z,29.20
2022-08-29T10:39:28.902Z,29.60
2022-08-29T10:42:19.502Z,29.70
2022-08-29T10:45:15.581Z,29.50
2022-08-29T10:47:56.815Z,29.50
2022-08-29T10:50:49.673Z,30.50
2022-08-29T10:53:21.058Z,30.90
2022-08-29T10:56:04.426Z,30.50
2022-08-29T10:59:00.660Z,31.10
2022-08-29T11:01:30.811Z,31.60
2022-08-29T11:04:23.966Z,31.60
2022-08-29T11:07:17.799Z,31.10
2022-08-29T11:10:01.026Z,31.10
2022-08-29T11:12:46.295Z,31.90
2022-08-29T11:15:26.372Z,32.40
2022-08-29T11:18:01.875Z,31.90
2022-08-29T11:20:38.714Z,31.90
2022-08-29T11:23:27.602Z,32.30
2022-08-29T11:25:56.556Z,31.40
2022-08-29T11:28:35.054Z,31.40
2022-08-29T11:31:24.673Z,31.20
2022-08-29T11:34:18.044Z,31.70
2022-08-29T11:37:14.447Z,32.20
2022-08-29T11:39:57.196Z,32.30
2022-08-29T11:45:35.620Z,33.00
2022-08-29T11:48:18.342Z,32.30
2022-08-29T11:50:45.978Z,32.80
2022-08-29T11:53:33.859Z,32.60
2022-08-29T11:56:13.066Z,33.00
2022-08-29T11:58:46.343Z,33.00
2022-08-29T12:01:25.258Z,33.20
2022-08-29T12:03:54.278Z,32.90
2022-08-29T12:06:46.080Z,33.00
2022-08-29T12:09:13.835Z,33.60
2022-08-29T12:11:59.337Z,33.50
2022-08-29T12:14:37.965Z,33.10
2022-08-29T12:17:51.189Z,32.70
2022-08-29T12:20:47.589Z,32.50
2022-08-29T12:23:14.432Z,33.30
2022-08-29T12:25:44.908Z,32.80
2022-08-29T12:28:27.943Z,32.80
2022-08-29T12:31:07.056Z,32.70
2022-08-29T12:34:13.159Z,33.50
2022-08-29T12:37:13.936Z,34.40
2022-08-29T12:40:21.424Z,34.70
2022-08-29T12:43:07.020Z,34.50
2022-08-29T12:45:36.286Z,34.50
2022-08-29T12:48:11.473Z,34.10
2022-08-29T12:50:45.190Z,34.50
2022-08-29T12:53:34.857Z,33.90
2022-08-29T12:56:18.316Z,34.20
2022-08-29T12:58:54.688Z,35.10
2022-08-29T13:01:33.321Z,35.50
2022-08-29T13:04:05.010Z,36.00
2022-08-29T13:06:33.492Z,36.00
2022-08-29T13:09:00.831Z,35.70
2022-08-29T13:11:30.283Z,35.10
2022-08-29T13:14:08.909Z,35.10
2022-08-29T13:16:35.737Z,35.60
2022-08-29T13:19:14.124Z,34.90
2022-08-29T13:21:40.993Z,34.40
2022-08-29T13:24:19.583Z,33.30
2022-08-29T13:27:04.195Z,34.00
2022-08-29T13:29:42.225Z,34.80
2022-08-29T13:32:23.178Z,35.30
2022-08-29T13:35:20.612Z,34.70
2022-08-29T13:38:18.074Z,34.60
2022-08-29T13:40:49.877Z,34.30
2022-08-29T13:43:43.312Z,34.50
2022-08-29T13:46:15.082Z,35.10
2022-08-29T13:48:42.815Z,35.20
2022-08-29T13:51:09.889Z,35.30
2022-08-29T13:53:37.532Z,35.80
2022-08-29T13:56:04.753Z,35.40
2022-08-29T13:58:32.414Z,35.70
2022-08-29T14:00:59.276Z,36.00
2022-08-29T14:03:26.478Z,35.80
2022-08-29T14:05:56.423Z,34.80
2022-08-29T14:08:24.548Z,34.40
2022-08-29T14:10:52.043Z,34.20
2022-08-29T14:13:18.829Z,34.20
2022-08-29T14:15:45.867Z,33.90
2022-08-29T14:18:12.898Z,34.00
2022-08-29T14:20:39.883Z,34.10
2022-08-29T14:23:07.122Z,33.70
2022-08-29T14:25:33.934Z,33.60
2022-08-29T14:28:00.793Z,33.80
2022-08-29T14:30:27.687Z,33.50
2022-08-29T14:32:54.513Z,33.50
2022-08-29T14:35:25.850Z,34.20
2022-08-29T14:37:54.248Z,35.30
2022-08-29T14:40:22.099Z,35.40
2022-08-29T14:42:49.246Z,34.70
2022-08-29T14:45:16.142Z,35.00
2022-08-29T14:47:45.403Z,34.80
2022-08-29T14:50:14.174Z,34.60
2022-08-29T14:52:42.349Z,34.50
2022-08-29T14:55:10.959Z,34.40
2022-08-29T14:57:38.149Z,33.90
2022-08-29T15:00:09.829Z,33.20
2022-08-29T15:02:36.656Z,32.50
2022-08-29T15:05:03.658Z,32.20
2022-08-29T15:07:30.485Z,33.30
2022-08-29T15:09:57.508Z,33.80
2022-08-29T15:12:27.855Z,33.90
2022-08-29T15:14:55.643Z,34.90
2022-08-29T15:17:23.619Z,35.50
2022-08-29T15:20:34.346Z,36.10
2022-08-29T15:22:38.038Z,36.10
2022-08-29T15:25:05.726Z,35.70
2022-08-29T15:27:33.104Z,36.00
2022-08-29T15:29:59.968Z,35.90
2022-08-29T15:32:26.773Z,36.10
2022-08-29T15:34:53.896Z,35.60
2022-08-29T15:37:20.715Z,34.80
2022-08-29T15:39:49.886Z,35.10
2022-08-29T15:42:28.627Z,35.20
2022-08-29T15:44:56.124Z,35.30
2022-08-29T15:47:26.218Z,35.20
2022-08-29T15:49:53.666Z,35.40
2022-08-29T15:52:20.764Z,35.60
2022-08-29T15:54:47.540Z,35.20
2022-08-29T15:57:14.366Z,35.00
2022-08-29T15:59:57.670Z,34.80
2022-08-29T16:02:26.417Z,34.30
2022-08-29T16:04:56.905Z,33.70
2022-08-29T16:07:29.237Z,33.50
2022-08-29T16:10:05.764Z,32.80
2022-08-29T16:12:38.134Z,32.40
2022-08-29T16:15:09.604Z,32.20
2022-08-29T16:17:37.272Z,32.10
2022-08-29T16:20:06.430Z,32.10
2022-08-29T16:22:34.004Z,31.80
2022-08-29T16:25:01.444Z,31.60
2022-08-29T16:27:28.356Z,31.50
2022-08-29T16:29:56.582Z,31.40
2022-08-29T16:32:23.882Z,31.30
2022-08-29T16:34:51.666Z,31.00
2022-08-29T16:37:18.985Z,30.80
2022-08-29T16:39:45.863Z,30.60
2022-08-29T16:42:12.603Z,30.30
2022-08-29T16:44:40.284Z,30.10
2022-08-29T16:47:07.337Z,29.80
2022-08-29T16:49:34.237Z,29.80
2022-08-29T16:52:01.157Z,29.90
2022-08-29T16:54:28.555Z,29.50
2022-08-29T16:56:57.104Z,29.50
2022-08-29T16:59:24.235Z,29.40
2022-08-29T17:01:54.055Z,29.30
2022-08-29T17:04:25.077Z,29.20
2022-08-29T17:06:52.446Z,29.20
2022-08-29T17:09:21.365Z,29.30
2022-08-29T17:11:49.216Z,29.30
2022-08-29T17:14:18.133Z,29.30
2022-08-29T17:16:47.125Z,29.30
2022-08-29T17:19:15.624Z,29.20
2022-08-29T17:21:43.106Z,29.60
2022-08-29T17:24:11.043Z,29.10
2022-08-29T17:26:41.013Z,29.20
2022-08-29T17:29:09.337Z,28.90
2022-08-29T17:31:38.927Z,28.90
2022-08-29T17:34:07.915Z,28.60
2022-08-29T17:36:36.693Z,28.50
2022-08-29T17:39:05.335Z,28.40
2022-08-29T17:41:37.414Z,28.30
2022-08-29T17:44:06.677Z,28.20
2022-08-29T17:46:33.513Z,28.10
2022-08-29T17:49:04.265Z,28.10
2022-08-29T17:51:33.986Z,27.90
2022-08-29T17:54:00.886Z,27.80
2022-08-29T17:56:38.672Z,27.70
2022-08-29T17:59:12.807Z,27.60
2022-08-29T18:01:39.913Z,27.50
2022-08-29T18:04:06.776Z,27.40
2022-08-29T18:06:33.755Z,27.20
2022-08-29T18:09:00.675Z,27.10
2022-08-29T18:11:27.604Z,27.00
2022-08-29T18:13:55.286Z,27.40
2022-08-29T18:16:22.185Z,26.80
2022-08-29T18:18:49.278Z,26.70
2022-08-29T18:21:18.623Z,27.50
2022-08-29T18:23:45.933Z,26.50
2022-08-29T18:26:13.920Z,26.30
2022-08-29T18:28:42.186Z,26.10
2022-08-29T18:31:09.700Z,25.90
2022-08-29T18:33:57.281Z,25.90
2022-08-29T18:36:25.977Z,25.80
2022-08-29T18:38:53.157Z,25.80
2022-08-29T18:41:20.040Z,25.60
2022-08-29T18:43:47.295Z,25.60
2022-08-29T18:46:14.249Z,25.50
2022-08-29T18:48:43.220Z,25.30
2022-08-29T18:51:10.372Z,25.20
2022-08-29T18:53:39.387Z,25.10
2022-08-29T18:56:07.129Z,25.10
2022-08-29T18:58:35.969Z,25.00
2022-08-29T19:01:26.934Z,24.90
2022-08-29T19:03:56.774Z,24.80
2022-08-29T19:06:25.881Z,24.60
2022-08-29T19:08:56.990Z,24.60
2022-08-29T19:11:24.599Z,24.60
2022-08-29T19:13:52.243Z,24.50
2022-08-29T19:16:20.786Z,24.40
2022-08-29T19:18:47.830Z,24.30
2022-08-29T19:21:14.646Z,24.20
2022-08-29T19:23:44.404Z,24.20
2022-08-29T19:26:20.176Z,24.10
2022-08-29T19:28:47.045Z,24.10
2022-08-29T19:31:16.372Z,24.10
2022-08-29T19:33:45.037Z,24.00
2022-08-29T19:36:12.063Z,23.90
2022-08-29T19:38:41.327Z,23.80
2022-08-29T19:41:15.585Z,23.80
2022-08-29T19:43:42.762Z,23.70
2022-08-29T19:46:22.082Z,23.70
2022-08-29T19:48:51.201Z,23.70
2022-08-29T19:51:19.809Z,23.70
2022-08-29T19:53:48.464Z,23.60
2022-08-29T19:56:15.315Z,23.60
2022-08-29T19:58:42.728Z,23.60
2022-08-29T20:01:10.374Z,23.50
2022-08-29T20:03:39.394Z,23.40
2022-08-29T20:06:06.989Z,23.40
2022-08-29T20:08:39.776Z,23.40
2022-08-29T20:11:06.802Z,23.30
2022-08-29T20:13:35.753Z,23.40
2022-08-29T20:16:10.147Z,23.30
2022-08-29T20:18:39.769Z,23.20
2022-08-29T20:21:07.016Z,23.20
2022-08-29T20:23:33.798Z,23.00
2022-08-29T20:26:01.628Z,23.10
2022-08-29T20:28:30.517Z,23.00
2022-08-29T20:30:58.098Z,23.00
2022-08-29T20:33:25.881Z,22.90
2022-08-29T20:36:11.634Z,22.80
2022-08-29T20:38:38.488Z,22.80
2022-08-29T20:41:05.524Z,22.80
2022-08-29T20:43:32.467Z,22.60
2022-08-29T20:45:59.979Z,22.80
2022-08-29T20:48:31.280Z,22.70
2022-08-29T20:51:04.582Z,22.70
2022-08-29T20:53:33.182Z,22.60
2022-08-29T20:56:01.211Z,22.70
2022-08-29T20:58:30.176Z,22.60
2022-08-29T21:00:58.393Z,22.70
2022-08-29T21:03:44.289Z,22.50
2022-08-29T21:06:11.268Z,22.30
2022-08-29T21:08:39.842Z,22.30
2022-08-29T21:11:06.769Z,22.30
2022-08-29T21:13:33.564Z,22.30
2022-08-29T21:16:01.400Z,22.20
2022-08-29T21:18:28.205Z,22.30
2022-08-29T21:20:55.404Z,22.20
2022-08-29T21:23:24.560Z,22.20
2022-08-29T21:25:56.918Z,22.10
2022-08-29T21:28:25.495Z,22.10
2022-08-29T21:30:52.945Z,22.00
2022-08-29T21:33:20.351Z,22.20
2022-08-29T21:35:49.981Z,21.80
2022-08-29T21:38:17.557Z,21.60
2022-08-29T21:40:51.048Z,21.60
2022-08-29T21:43:19.307Z,21.50
2022-08-29T21:45:46.496Z,21.40
2022-08-29T21:48:13.528Z,21.40
2022-08-29T21:50:40.320Z,21.60
2022-08-29T21:53:08.721Z,21.20
2022-08-29T21:55:35.584Z,21.20
2022-08-29T21:58:02.467Z,21.20
2022-08-29T22:00:32.616Z,21.20
2022-08-29T22:03:06.589Z,21.30
2022-08-29T22:05:33.713Z,21.60
2022-08-29T22:08:03.235Z,21.20
2022-08-29T22:10:34.074Z,21.20
2022-08-29T22:13:02.499Z,21.20
2022-08-29T22:15:48.204Z,21.00
2022-08-29T22:18:15.601Z,22.60
2022-08-29T22:20:44.119Z,21.10
2022-08-29T22:23:11.238Z,21.00
2022-08-29T22:25:38.023Z,21.00
2022-08-29T22:28:05.309Z,21.10
2022-08-29T22:30:32.718Z,21.40
2022-08-29T22:33:01.053Z,21.10
2022-08-29T22:35:28.572Z,21.10
2022-08-29T22:37:55.780Z,20.90
2022-08-29T22:40:23.547Z,21.00
2022-08-29T22:42:50.677Z,20.80
2022-08-29T22:45:18.437Z,20.80
2022-08-29T22:47:46.626Z,20.60
2022-08-29T22:50:18.853Z,20.70
2022-08-29T22:52:46.175Z,20.60
2022-08-29T22:55:15.421Z,20.30
2022-08-29T22:57:45.196Z,20.20
2022-08-29T23:00:17.380Z,20.30
2022-08-29T23:02:44.199Z,20.20
2022-08-29T23:05:11.728Z,20.40
2022-08-29T23:07:38.732Z,20.50
2022-08-29T23:10:08.073Z,20.20
2022-08-29T23:12:39.040Z,20.10
2022-08-29T23:15:09.992Z,20.00
2022-08-29T23:17:36.991Z,20.10
2022-08-29T23:20:06.068Z,20.00
2022-08-29T23:22:33.401Z,20.10
2022-08-29T23:25:00.530Z,20.00
2022-08-29T23:27:29.109Z,20.20
2022-08-29T23:29:56.406Z,20.10
2022-08-29T23:32:23.298Z,20.20
2022-08-29T23:34:50.125Z,20.20
2022-08-29T23:37:16.950Z,20.20
2022-08-29T23:39:43.812Z,20.40
2022-08-29T23:42:10.605Z,20.20
2022-08-29T23:44:37.412Z,20.80
2022-08-29T23:47:04.447Z,20.20
2022-08-29T23:49:31.462Z,20.00
2022-08-29T23:51:59.164Z,19.80
2022-08-29T23:54:26.146Z,19.50
2022-08-29T23:56:53.537Z,19.50
2022-08-29T23:59:38.987Z,19.90
